Time;durP1;ratioP1;P1;durP2;ratioP2;P2;SDS_P1;SDS_P2;PMS_P1;PMS_P2;Temp;Humidity;BMP_temperature;BMP_pressure;BME280_temperature;BME280_humidity;BME280_pressure;Samples;Min_cycle;Max_cycle;Signal;HPM_P1;HPM_P2
2023/07/17 00:02:14;;;;;;;5.32;2.85;;;17.50;99.90;;;;;;5001035;28;20034;-76
2023/07/17 00:04:40;;;;;;;2.80;2.17;;;17.50;99.90;;;;;;5002026;28;20029;-78
2023/07/17 00:07:05;;;;;;;3.53;2.33;;;17.50;99.90;;;;;;5000775;28;20022;-77
2023/07/17 00:09:31;;;;;;;2.60;2.35;;;17.50;99.90;;;;;;4990084;28;20033;-77
2023/07/17 00:11:56;;;;;;;3.60;2.13;;;17.50;99.90;;;;;;4986493;28;20388;-78
2023/07/17 00:14:22;;;;;;;3.75;2.67;;;17.50;99.90;;;;;;5010492;28;20477;-77
2023/07/17 00:16:48;;;;;;;4.50;2.88;;;17.50;99.90;;;;;;4995736;28;20171;-76
2023/07/17 00:19:13;;;;;;;3.60;2.63;;;17.50;99.90;;;;;;5006722;28;20022;-77
2023/07/17 00:21:39;;;;;;;4.43;2.45;;;17.50;99.90;;;;;;4993544;28;20019;-76
2023/07/17 00:24:04;;;;;;;3.83;2.33;;;17.50;99.90;;;;;;4981757;28;20038;-76
2023/07/17 00:26:30;;;;;;;3.25;2.08;;;17.40;99.90;;;;;;5003083;28;20037;-77
2023/07/17 00:29:19;;;;;;;4.60;2.38;;;17.40;99.90;;;;;;4978334;28;20141;-76
2023/07/17 00:31:45;;;;;;;3.22;2.33;;;17.40;99.90;;;;;;5006559;28;20034;-77
2023/07/17 00:34:10;;;;;;;3.38;2.67;;;17.30;99.90;;;;;;4983922;28;20113;-78
2023/07/17 00:36:36;;;;;;;2.50;2.25;;;17.30;99.90;;;;;;5001447;28;20022;-76
2023/07/17 00:39:02;;;;;;;2.90;2.08;;;17.30;99.90;;;;;;5003305;28;20443;-76
2023/07/17 00:41:28;;;;;;;3.28;2.67;;;17.30;99.90;;;;;;4997529;28;20023;-77
2023/07/17 00:43:53;;;;;;;2.78;2.28;;;17.20;99.90;;;;;;4997975;28;20022;-77
2023/07/17 00:46:19;;;;;;;2.85;2.22;;;17.20;99.90;;;;;;4976864;28;20026;-77
2023/07/17 00:48:45;;;;;;;2.70;2.42;;;17.20;99.90;;;;;;5005862;28;20014;-77
2023/07/17 00:51:10;;;;;;;3.25;2.78;;;17.20;99.90;;;;;;4998496;28;20026;-77
2023/07/17 00:53:36;;;;;;;3.55;2.47;;;17.20;99.90;;;;;;4999755;28;20034;-77
2023/07/17 00:56:02;;;;;;;4.22;2.67;;;17.10;99.90;;;;;;5002452;28;20031;-77
2023/07/17 00:58:28;;;;;;;4.60;2.13;;;17.10;99.90;;;;;;4996712;28;20026;-77
2023/07/17 01:00:54;;;;;;;2.78;2.42;;;17.10;99.90;;;;;;4999111;28;20056;-77
2023/07/17 01:03:20;;;;;;;3.83;2.75;;;17.00;99.90;;;;;;4999728;28;20723;-77
2023/07/17 01:05:45;;;;;;;3.08;2.40;;;17.00;99.90;;;;;;5000553;28;20385;-77
2023/07/17 01:08:11;;;;;;;3.45;2.63;;;17.00;99.90;;;;;;5001416;28;20034;-77
2023/07/17 01:10:36;;;;;;;4.07;2.45;;;17.00;99.90;;;;;;4996063;28;20596;-77
2023/07/17 01:13:02;;;;;;;2.60;2.40;;;16.90;99.90;;;;;;5001394;28;20026;-78
2023/07/17 01:15:27;;;;;;;2.72;2.53;;;16.90;99.90;;;;;;5000153;28;20448;-77
2023/07/17 01:17:53;;;;;;;3.15;2.38;;;16.90;99.90;;;;;;5001343;28;20061;-77
2023/07/17 01:20:18;;;;;;;3.22;2.17;;;16.90;99.90;;;;;;5002178;28;20053;-77
2023/07/17 01:22:56;;;;;;;4.47;2.28;;;16.90;99.90;;;;;;4999906;28;20034;-77
2023/07/17 01:25:21;;;;;;;3.40;2.60;;;16.90;99.90;;;;;;4974244;28;20076;-77
2023/07/17 01:27:47;;;;;;;3.85;3.20;;;16.90;99.90;;;;;;5000810;28;20034;-77
2023/07/17 01:30:12;;;;;;;3.47;2.50;;;16.90;99.90;;;;;;4980361;28;20030;-78
2023/07/17 01:32:38;;;;;;;3.17;2.72;;;16.80;99.90;;;;;;4998469;28;20104;-77
2023/07/17 01:35:04;;;;;;;5.72;2.63;;;16.90;99.90;;;;;;4997481;28;20022;-77
2023/07/17 01:37:29;;;;;;;3.22;2.63;;;16.90;99.90;;;;;;4993202;28;20049;-77
2023/07/17 01:39:54;;;;;;;5.78;3.25;;;16.80;99.90;;;;;;5000228;28;20044;-77
2023/07/17 01:42:20;;;;;;;2.45;2.25;;;16.80;99.90;;;;;;5002809;28;20392;-77
2023/07/17 01:44:45;;;;;;;3.35;2.65;;;16.80;99.90;;;;;;5004014;28;20018;-77
2023/07/17 01:47:11;;;;;;;3.47;2.63;;;16.80;99.90;;;;;;5005247;28;20022;-77
2023/07/17 01:49:37;;;;;;;4.55;3.13;;;16.80;99.90;;;;;;5004021;28;20027;-77
2023/07/17 01:52:02;;;;;;;2.80;2.50;;;16.80;99.90;;;;;;5003514;28;20010;-76
2023/07/17 01:54:28;;;;;;;4.38;2.78;;;16.80;99.90;;;;;;4992145;28;20023;-77
2023/07/17 01:56:53;;;;;;;3.75;2.75;;;16.80;99.90;;;;;;5004746;28;20017;-77
2023/07/17 01:59:19;;;;;;;4.20;2.97;;;16.80;99.90;;;;;;5004558;28;20024;-76
2023/07/17 02:01:45;;;;;;;2.85;2.53;;;16.80;99.90;;;;;;4986488;28;20026;-77
2023/07/17 02:04:11;;;;;;;3.70;2.83;;;16.80;99.90;;;;;;5004125;28;20065;-77
2023/07/17 02:06:36;;;;;;;3.33;2.50;;;16.80;99.90;;;;;;4985501;28;20030;-77
2023/07/17 02:09:04;;;;;;;5.07;3.17;;;16.80;99.90;;;;;;5004773;28;20044;-76
2023/07/17 02:11:30;;;;;;;3.22;2.92;;;16.80;99.90;;;;;;4986508;28;20026;-77
2023/07/17 02:13:56;;;;;;;4.55;3.08;;;16.90;99.90;;;;;;4986303;28;20022;-77
2023/07/17 02:16:21;;;;;;;3.97;2.65;;;16.80;99.90;;;;;;5003179;28;20113;-76
2023/07/17 02:18:47;;;;;;;3.28;2.75;;;16.80;99.90;;;;;;4986384;28;20370;-77
2023/07/17 02:21:13;;;;;;;3.65;2.92;;;16.80;99.90;;;;;;4984683;28;20629;-76
2023/07/17 02:23:38;;;;;;;3.55;2.72;;;16.80;99.90;;;;;;4985138;28;20435;-76
2023/07/17 02:26:04;;;;;;;4.55;2.95;;;16.80;99.90;;;;;;5004541;28;20564;-76
2023/07/17 02:28:29;;;;;;;3.80;2.65;;;16.80;99.90;;;;;;4981206;28;20018;-76
2023/07/17 02:30:55;;;;;;;4.53;2.90;;;16.80;99.90;;;;;;4997326;28;21217;-76
2023/07/17 02:33:20;;;;;;;3.50;2.80;;;16.80;99.90;;;;;;4996353;28;20041;-76
2023/07/17 02:35:46;;;;;;;4.25;2.70;;;16.80;99.90;;;;;;5006219;28;20022;-76
2023/07/17 02:38:11;;;;;;;4.65;2.78;;;16.80;99.90;;;;;;4986594;28;20033;-76
2023/07/17 02:40:37;;;;;;;5.78;3.25;;;16.80;99.90;;;;;;5003158;28;20030;-77
2023/07/17 02:43:05;;;;;;;5.78;3.00;;;16.80;99.90;;;;;;5000748;28;20030;-76
2023/07/17 02:45:30;;;;;;;5.35;2.85;;;16.80;99.90;;;;;;5006051;28;20024;-76
2023/07/17 02:47:56;;;;;;;4.85;2.85;;;16.80;99.90;;;;;;4982524;28;20400;-76
2023/07/17 02:50:22;;;;;;;5.75;3.42;;;16.80;99.90;;;;;;5007411;28;20040;-77
2023/07/17 02:52:47;;;;;;;3.72;3.00;;;16.80;99.90;;;;;;4999691;28;20405;-77
2023/07/17 02:55:13;;;;;;;4.57;3.30;;;16.70;99.90;;;;;;4982496;28;20025;-77
2023/07/17 02:57:38;;;;;;;4.57;3.33;;;16.70;99.90;;;;;;5006014;28;20101;-77
2023/07/17 03:00:08;;;;;;;6.95;2.88;;;16.70;99.90;;;;;;4999469;28;20088;-77
2023/07/17 03:02:35;;;;;;;3.75;3.15;;;16.70;99.90;;;;;;5006671;28;20038;-77
2023/07/17 03:05:04;;;;;;;3.60;3.25;;;16.70;99.90;;;;;;4999340;28;20085;-77
2023/07/17 03:07:32;;;;;;;4.03;2.78;;;16.70;99.90;;;;;;5008152;28;20022;-77
2023/07/17 03:09:57;;;;;;;4.32;3.25;;;16.70;99.90;;;;;;4981661;28;20724;-77
2023/07/17 03:12:23;;;;;;;5.75;2.88;;;16.60;99.90;;;;;;4999880;28;20109;-77
2023/07/17 03:14:48;;;;;;;3.55;2.63;;;16.60;99.90;;;;;;4990885;28;20084;-77
2023/07/17 03:17:14;;;;;;;3.55;2.78;;;16.60;99.90;;;;;;4999430;28;20057;-77
2023/07/17 03:19:39;;;;;;;4.72;3.33;;;16.60;99.90;;;;;;5003011;28;20161;-77
2023/07/17 03:22:05;;;;;;;5.38;3.03;;;16.60;99.90;;;;;;4998965;28;20315;-77
2023/07/17 03:24:31;;;;;;;5.43;3.05;;;16.60;99.90;;;;;;4988629;28;20076;-77
2023/07/17 03:26:58;;;;;;;6.78;2.95;;;16.60;99.90;;;;;;4998506;28;20555;-77
2023/07/17 03:29:24;;;;;;;5.65;2.85;;;16.60;99.90;;;;;;4994136;28;20038;-77
2023/07/17 03:31:50;;;;;;;4.10;3.08;;;16.50;99.90;;;;;;5004553;28;20242;-77
2023/07/17 03:34:15;;;;;;;3.28;2.53;;;16.50;99.90;;;;;;4994613;28;20722;-77
2023/07/17 03:36:41;;;;;;;5.05;2.42;;;16.60;99.90;;;;;;5005915;28;20232;-77
2023/07/17 03:39:06;;;;;;;3.78;3.08;;;16.60;99.90;;;;;;4998183;28;20172;-77
2023/07/17 03:41:32;;;;;;;3.95;3.17;;;16.50;99.90;;;;;;4999679;28;20094;-77
2023/07/17 03:43:59;;;;;;;5.22;2.80;;;16.60;99.90;;;;;;5002705;28;20501;-77
2023/07/17 03:46:25;;;;;;;6.20;4.38;;;16.60;99.90;;;;;;4996904;28;20157;-77
2023/07/17 03:48:51;;;;;;;4.55;3.60;;;16.60;99.90;;;;;;5005479;28;20022;-77
2023/07/17 03:51:17;;;;;;;3.22;2.50;;;16.60;99.90;;;;;;4980698;28;20133;-77
2023/07/17 03:53:42;;;;;;;4.47;2.47;;;16.60;99.90;;;;;;5000421;28;20035;-78
2023/07/17 03:56:08;;;;;;;4.50;2.58;;;16.60;99.90;;;;;;4996313;28;20034;-77
2023/07/17 03:58:33;;;;;;;5.15;2.90;;;16.60;99.90;;;;;;4999394;28;20026;-77
2023/07/17 04:00:59;;;;;;;5.32;2.33;;;16.60;99.90;;;;;;4988584;28;20041;-77
2023/07/17 04:03:25;;;;;;;4.22;3.20;;;16.60;99.90;;;;;;4975827;28;20026;-77
2023/07/17 04:05:50;;;;;;;5.72;3.10;;;16.60;99.90;;;;;;4987292;28;20018;-77
2023/07/17 04:08:16;;;;;;;5.13;2.97;;;16.70;99.90;;;;;;4997784;28;20033;-77
2023/07/17 04:10:41;;;;;;;4.50;2.55;;;16.70;99.90;;;;;;5000492;28;20097;-77
2023/07/17 04:13:07;;;;;;;4.95;3.25;;;16.70;99.90;;;;;;5001168;28;20113;-77
2023/07/17 04:15:36;;;;;;;4.25;3.00;;;16.70;99.90;;;;;;4998813;28;20129;-77
2023/07/17 04:18:01;;;;;;;8.07;3.55;;;16.70;99.90;;;;;;5002752;28;20034;-77
2023/07/17 04:20:27;;;;;;;6.28;2.85;;;16.80;99.90;;;;;;4980717;28;20625;-77
2023/07/17 04:22:52;;;;;;;3.58;2.88;;;16.80;99.90;;;;;;4986561;28;20027;-77
2023/07/17 04:25:18;;;;;;;4.40;2.70;;;16.80;99.90;;;;;;4973665;28;20426;-77
2023/07/17 04:27:44;;;;;;;4.70;2.65;;;16.80;99.90;;;;;;5000007;28;20429;-77
2023/07/17 04:30:10;;;;;;;3.92;3.22;;;16.80;99.90;;;;;;4997214;28;20029;-77
2023/07/17 04:32:35;;;;;;;5.28;3.00;;;16.90;99.90;;;;;;4998318;28;20371;-77
2023/07/17 04:35:02;;;;;;;4.07;3.22;;;16.80;99.90;;;;;;4997220;28;20138;-77
2023/07/17 04:37:27;;;;;;;4.15;3.10;;;16.90;99.90;;;;;;4998520;28;20034;-77
2023/07/17 04:39:53;;;;;;;5.10;3.08;;;16.90;99.90;;;;;;4982898;28;20037;-77
2023/07/17 04:42:18;;;;;;;4.68;2.75;;;16.90;99.90;;;;;;4982911;28;20026;-77
2023/07/17 04:44:44;;;;;;;5.88;3.22;;;17.00;99.90;;;;;;4999718;28;20030;-77
2023/07/17 04:47:10;;;;;;;5.13;2.78;;;17.00;99.90;;;;;;5001286;28;20026;-77
2023/07/17 04:49:35;;;;;;;4.60;2.90;;;17.00;99.90;;;;;;5000127;28;20018;-77
2023/07/17 04:52:01;;;;;;;3.88;3.15;;;17.00;99.90;;;;;;4983316;28;20405;-77
2023/07/17 04:54:27;;;;;;;6.05;3.42;;;17.00;99.90;;;;;;4998144;28;20050;-77
2023/07/17 04:56:52;;;;;;;6.03;3.17;;;17.00;99.90;;;;;;4998838;28;20153;-77
2023/07/17 04:59:19;;;;;;;3.53;2.55;;;17.10;99.90;;;;;;4979432;28;20041;-77
2023/07/17 05:01:45;;;;;;;4.22;3.28;;;17.10;99.90;;;;;;4999930;28;20374;-78
2023/07/17 05:04:11;;;;;;;4.05;2.72;;;17.10;99.90;;;;;;5001268;28;20044;-77
2023/07/17 05:06:36;;;;;;;5.38;3.47;;;17.10;99.90;;;;;;5001579;28;20524;-77
2023/07/17 05:09:02;;;;;;;5.55;2.78;;;17.10;99.90;;;;;;4984205;28;20152;-77
2023/07/17 05:11:27;;;;;;;4.45;2.92;;;17.20;99.90;;;;;;4998921;28;20026;-76
2023/07/17 05:13:53;;;;;;;3.45;2.75;;;17.20;99.90;;;;;;5000695;28;20112;-77
2023/07/17 05:16:18;;;;;;;4.93;2.88;;;17.20;99.90;;;;;;4983401;28;20018;-77
2023/07/17 05:18:44;;;;;;;6.80;3.22;;;17.20;99.90;;;;;;5004166;28;20030;-77
2023/07/17 05:21:10;;;;;;;4.13;3.70;;;17.20;99.90;;;;;;4996748;28;20030;-77
2023/07/17 05:23:35;;;;;;;4.13;2.80;;;17.20;99.90;;;;;;5003392;28;20093;-77
2023/07/17 05:26:03;;;;;;;5.28;3.40;;;17.20;99.90;;;;;;5001477;28;20041;-77
2023/07/17 05:28:29;;;;;;;6.95;3.33;;;17.20;99.90;;;;;;4999848;28;20094;-77
2023/07/17 05:30:55;;;;;;;5.53;3.00;;;17.20;99.90;;;;;;5004219;28;20030;-77
2023/07/17 05:33:22;;;;;;;4.60;3.03;;;17.20;99.90;;;;;;5003306;28;20030;-77
2023/07/17 05:35:48;;;;;;;6.07;3.22;;;17.20;99.90;;;;;;5003464;28;20017;-77
2023/07/17 05:38:13;;;;;;;4.30;2.97;;;17.20;99.90;;;;;;5004635;28;20022;-77
2023/07/17 05:40:40;;;;;;;6.25;3.17;;;17.20;99.90;;;;;;5004961;28;20032;-77
2023/07/17 05:43:09;;;;;;;4.70;3.03;;;17.20;99.90;;;;;;5005076;28;20066;-76
2023/07/17 05:45:35;;;;;;;4.75;3.45;;;17.20;99.90;;;;;;5002484;28;20030;-77
2023/07/17 05:48:01;;;;;;;6.15;3.10;;;17.20;99.90;;;;;;4986911;28;20146;-77
2023/07/17 05:50:26;;;;;;;6.60;3.33;;;17.20;99.90;;;;;;5003972;28;20025;-76
2023/07/17 05:52:52;;;;;;;4.70;3.42;;;17.20;99.90;;;;;;5000383;28;20076;-77
2023/07/17 05:55:17;;;;;;;4.65;3.42;;;17.30;99.90;;;;;;4984921;28;20033;-77
2023/07/17 05:57:43;;;;;;;5.40;3.58;;;17.30;99.90;;;;;;4983466;28;20018;-76
2023/07/17 06:00:15;;;;;;;4.60;3.20;;;17.40;99.90;;;;;;4998784;28;20389;-77
2023/07/17 06:02:44;;;;;;;4.45;3.00;;;17.50;99.90;;;;;;5004307;28;20029;-77
2023/07/17 06:05:10;;;;;;;6.07;3.33;;;17.60;99.90;;;;;;5005191;28;20532;-77
2023/07/17 06:07:36;;;;;;;3.42;2.78;;;17.70;99.90;;;;;;5001946;28;20058;-77
2023/07/17 06:10:02;;;;;;;5.70;3.35;;;17.90;99.90;;;;;;5000311;28;20101;-77
2023/07/17 06:12:27;;;;;;;5.45;3.40;;;18.10;99.90;;;;;;4990757;28;20441;-77
2023/07/17 06:14:53;;;;;;;5.43;3.10;;;18.20;99.90;;;;;;4999866;28;20022;-77
2023/07/17 06:17:18;;;;;;;4.55;3.30;;;18.40;99.90;;;;;;5006325;28;20030;-77
2023/07/17 06:19:44;;;;;;;3.58;2.70;;;18.60;99.90;;;;;;5000586;28;20030;-77
2023/07/17 06:22:10;;;;;;;4.78;3.10;;;18.70;99.90;;;;;;5004338;28;20105;-77
2023/07/17 06:24:35;;;;;;;6.32;3.30;;;18.70;99.90;;;;;;5000628;28;20068;-77
2023/07/17 06:27:01;;;;;;;5.03;2.70;;;18.70;99.90;;;;;;4999817;28;20030;-76
2023/07/17 06:29:27;;;;;;;2.55;2.28;;;18.70;99.90;;;;;;5001317;28;20022;-77
2023/07/17 06:31:52;;;;;;;5.18;3.08;;;18.80;99.90;;;;;;4979197;28;20031;-76
2023/07/17 06:34:21;;;;;;;6.00;2.92;;;18.80;99.90;;;;;;4983219;28;20040;-77
2023/07/17 06:36:49;;;;;;;3.25;2.90;;;18.90;99.90;;;;;;4998936;28;20046;-77
2023/07/17 06:39:15;;;;;;;7.38;3.25;;;19.00;99.90;;;;;;5002159;28;20064;-76
2023/07/17 06:41:40;;;;;;;2.83;2.25;;;19.10;99.90;;;;;;5002082;28;20026;-78
2023/07/17 06:44:06;;;;;;;5.63;3.13;;;19.20;99.90;;;;;;5003554;28;20428;-76
2023/07/17 06:46:31;;;;;;;4.55;2.58;;;19.30;99.90;;;;;;5000981;28;20049;-77
2023/07/17 06:48:57;;;;;;;3.92;2.95;;;19.40;99.90;;;;;;5004988;28;20034;-76
2023/07/17 06:51:22;;;;;;;2.78;2.13;;;19.50;99.90;;;;;;4982017;28;20025;-76
2023/07/17 06:53:49;;;;;;;2.92;2.25;;;19.50;99.90;;;;;;5001891;28;20029;-76
2023/07/17 06:56:14;;;;;;;6.78;3.17;;;19.60;99.90;;;;;;5002004;28;20054;-78
2023/07/17 06:58:40;;;;;;;6.60;3.08;;;19.60;99.90;;;;;;5001342;28;20076;-77
2023/07/17 07:01:05;;;;;;;6.82;2.22;;;19.70;99.90;;;;;;5003971;28;20128;-77
2023/07/17 07:03:31;;;;;;;4.32;2.88;;;19.80;99.90;;;;;;5000813;28;20137;-77
2023/07/17 07:05:59;;;;;;;7.13;2.97;;;19.90;99.90;;;;;;5005464;28;20037;-77
2023/07/17 07:08:26;;;;;;;4.07;2.63;;;19.90;99.90;;;;;;4999584;28;20430;-78
2023/07/17 07:10:53;;;;;;;4.60;2.88;;;20.00;99.90;;;;;;5003365;28;20033;-77
2023/07/17 07:13:22;;;;;;;6.28;2.22;;;20.10;99.90;;;;;;5001793;28;20541;-77
2023/07/17 07:15:53;;;;;;;4.45;2.65;;;20.20;99.90;;;;;;5002539;28;20022;-76
2023/07/17 07:18:19;;;;;;;9.23;2.85;;;20.20;99.90;;;;;;5003550;28;20022;-76
2023/07/17 07:20:46;;;;;;;4.05;2.42;;;20.30;99.90;;;;;;5002700;28;20026;-76
2023/07/17 07:23:11;;;;;;;4.63;2.50;;;20.40;99.90;;;;;;5002431;28;20022;-76
2023/07/17 07:25:37;;;;;;;4.07;2.40;;;20.50;99.90;;;;;;4984466;28;20085;-77
2023/07/17 07:28:03;;;;;;;3.65;2.30;;;20.60;99.90;;;;;;4984931;28;20031;-76
2023/07/17 07:30:29;;;;;;;4.82;2.40;;;20.70;99.90;;;;;;4979545;28;20042;-76
2023/07/17 07:32:55;;;;;;;3.78;2.33;;;20.80;99.90;;;;;;5004238;28;20044;-77
2023/07/17 07:35:21;;;;;;;2.70;2.25;;;20.90;99.90;;;;;;4984660;28;20014;-76
2023/07/17 07:37:46;;;;;;;3.20;2.15;;;21.00;99.90;;;;;;5002028;28;20080;-77
2023/07/17 07:40:12;;;;;;;5.63;2.88;;;21.00;99.90;;;;;;5004705;28;20018;-77
2023/07/17 07:42:43;;;;;;;4.55;3.13;;;21.10;99.90;;;;;;4997805;28;20390;-78
2023/07/17 07:45:10;;;;;;;5.25;2.78;;;21.30;99.90;;;;;;4990359;28;20195;-77
2023/07/17 07:47:36;;;;;;;3.63;2.55;;;21.20;99.90;;;;;;5003486;28;20018;-77
2023/07/17 07:50:01;;;;;;;6.75;2.10;;;21.20;99.90;;;;;;5004487;28;20413;-77
2023/07/17 07:52:27;;;;;;;6.40;2.67;;;21.10;99.90;;;;;;5002455;28;20026;-77
2023/07/17 07:54:53;;;;;;;3.42;2.05;;;21.00;99.90;;;;;;5001778;28;20025;-78
2023/07/17 07:57:19;;;;;;;5.35;2.33;;;21.00;99.90;;;;;;5007328;28;20030;-77
2023/07/17 07:59:44;;;;;;;5.45;3.28;;;21.20;99.90;;;;;;5004555;28;20105;-78
2023/07/17 08:02:10;;;;;;;3.40;2.20;;;21.50;99.90;;;;;;4984892;28;20169;-77
2023/07/17 08:04:36;;;;;;;3.83;2.38;;;21.70;99.90;;;;;;5001489;28;20049;-78
2023/07/17 08:07:03;;;;;;;6.35;3.58;;;21.90;99.90;;;;;;4987579;28;20500;-79
2023/07/17 08:09:29;;;;;;;3.92;2.67;;;22.10;99.90;;;;;;4997797;28;20050;-77
2023/07/17 08:11:54;;;;;;;5.68;2.83;;;22.10;99.90;;;;;;5002016;28;20029;-77
2023/07/17 08:14:23;;;;;;;5.85;1.98;;;22.10;99.90;;;;;;5005252;28;20507;-78
2023/07/17 08:16:49;;;;;;;3.55;2.00;;;22.00;99.90;;;;;;4979057;28;20030;-77
2023/07/17 08:19:16;;;;;;;5.82;2.20;;;22.00;99.90;;;;;;4986231;28;20031;-78
2023/07/17 08:21:42;;;;;;;4.70;2.22;;;21.80;99.90;;;;;;5004007;28;20093;-79
2023/07/17 08:24:08;;;;;;;2.67;1.95;;;21.80;99.90;;;;;;4981254;28;20037;-78
2023/07/17 08:26:34;;;;;;;3.35;2.13;;;21.60;99.90;;;;;;4984631;28;20022;-78
2023/07/17 08:29:03;;;;;;;3.95;2.50;;;21.50;99.90;;;;;;5002464;28;20101;-78
2023/07/17 08:31:31;;;;;;;5.18;2.55;;;21.60;99.90;;;;;;4983631;28;20041;-78
2023/07/17 08:33:57;;;;;;;5.60;2.05;;;21.60;99.90;;;;;;5001284;28;20018;-78
2023/07/17 08:36:22;;;;;;;3.78;2.38;;;21.50;99.90;;;;;;5002721;28;20393;-78
2023/07/17 08:38:48;;;;;;;3.88;2.33;;;21.30;99.90;;;;;;5001066;28;20068;-77
2023/07/17 08:41:14;;;;;;;3.85;2.20;;;21.10;99.90;;;;;;4995772;28;20022;-77
2023/07/17 08:43:39;;;;;;;3.80;2.20;;;21.10;99.90;;;;;;5003781;28;20018;-77
2023/07/17 08:46:05;;;;;;;3.65;1.73;;;21.40;99.90;;;;;;4998666;28;20042;-78
2023/07/17 08:48:31;;;;;;;4.82;2.10;;;21.40;99.90;;;;;;4990580;28;20057;-79
2023/07/17 08:50:58;;;;;;;3.55;2.22;;;21.30;99.90;;;;;;5001896;28;20014;-78
2023/07/17 08:53:27;;;;;;;5.47;2.50;;;21.50;99.90;;;;;;4996819;28;20022;-78
2023/07/17 08:55:54;;;;;;;8.93;2.10;;;21.70;99.90;;;;;;4999214;28;20066;-78
2023/07/17 08:58:22;;;;;;;2.15;1.73;;;21.90;99.90;;;;;;4980395;28;20022;-77
2023/07/17 09:00:50;;;;;;;3.65;2.03;;;22.00;99.30;;;;;;4991234;28;20117;-78
2023/07/17 09:03:17;;;;;;;6.32;2.92;;;22.10;99.90;;;;;;5002058;28;20034;-77
2023/07/17 09:05:43;;;;;;;3.22;2.22;;;22.30;99.30;;;;;;5007985;28;20022;-79
2023/07/17 09:08:09;;;;;;;2.72;1.70;;;22.40;98.50;;;;;;5000576;28;20107;-77
2023/07/17 09:10:36;;;;;;;2.08;1.85;;;22.50;98.60;;;;;;5002313;28;20022;-78
2023/07/17 09:13:02;;;;;;;3.58;2.20;;;22.70;98.50;;;;;;5002751;28;20023;-78
2023/07/17 09:15:29;;;;;;;2.90;1.80;;;22.80;98.90;;;;;;5000217;28;20105;-78
2023/07/17 09:17:55;;;;;;;2.78;2.00;;;22.90;98.00;;;;;;4987157;28;20068;-77
2023/07/17 09:20:21;;;;;;;3.97;2.00;;;22.90;97.60;;;;;;5002924;28;20687;-77
2023/07/17 09:22:48;;;;;;;4.90;2.00;;;22.90;97.90;;;;;;5005642;28;20093;-78
2023/07/17 09:25:15;;;;;;;4.45;2.33;;;23.10;98.70;;;;;;4991606;28;20452;-78
2023/07/17 09:27:46;;;;;;;3.15;2.00;;;23.00;98.20;;;;;;5000801;28;20053;-79
2023/07/17 09:30:14;;;;;;;3.38;1.77;;;23.00;97.90;;;;;;4984155;28;20025;-78
2023/07/17 09:32:40;;;;;;;6.05;2.22;;;23.10;98.70;;;;;;5000282;28;20018;-77
2023/07/17 09:35:07;;;;;;;4.40;1.60;;;23.20;97.90;;;;;;4983779;28;20029;-77
2023/07/17 09:37:36;;;;;;;3.42;2.20;;;23.30;97.10;;;;;;4998167;28;20026;-77
2023/07/17 09:40:11;;;;;;;3.20;1.85;;;23.30;97.40;;;;;;5000304;28;20693;-78
2023/07/17 09:42:38;;;;;;;;;;;23.10;97.70;;;;;;4982954;28;20045;-77
2023/07/17 09:45:04;;;;;;;1.67;1.58;;;23.00;97.80;;;;;;5000798;28;19917;-77
2023/07/17 09:47:33;;;;;;;3.90;2.08;;;22.80;98.20;;;;;;5000532;28;20025;-79
2023/07/17 09:50:00;;;;;;;4.35;2.08;;;23.00;96.90;;;;;;5001936;28;20477;-78
2023/07/17 09:52:28;;;;;;;3.35;2.00;;;23.00;97.10;;;;;;5001975;28;20453;-78
2023/07/17 09:54:55;;;;;;;4.72;1.90;;;23.00;96.50;;;;;;4982085;28;20085;-78
2023/07/17 09:57:42;;;;;;;3.60;2.10;;;23.00;95.80;;;;;;5001803;28;20026;-78
2023/07/17 10:00:18;;;;;;;5.70;1.88;;;22.80;96.00;;;;;;4979050;28;20033;-77
2023/07/17 10:02:59;;;;;;;3.05;1.80;;;22.80;96.60;;;;;;5000658;28;20120;-78
2023/07/17 10:05:26;;;;;;;4.88;2.25;;;22.90;96.80;;;;;;5008639;28;20121;-78
2023/07/17 10:07:54;;;;;;;5.28;1.73;;;23.00;95.20;;;;;;5004358;28;20025;-78
2023/07/17 10:10:19;;;;;;;2.90;1.77;;;23.00;96.30;;;;;;5001801;28;20459;-79
2023/07/17 10:12:46;;;;;;;3.33;1.92;;;23.00;95.80;;;;;;4992195;28;20026;-77
2023/07/17 10:15:14;;;;;;;2.58;1.90;;;22.80;95.10;;;;;;5001332;28;20039;-78
2023/07/17 10:17:40;;;;;;;4.50;2.08;;;22.50;96.10;;;;;;5008475;28;20422;-78
2023/07/17 10:20:08;;;;;;;3.92;2.00;;;22.20;96.30;;;;;;5001279;28;20477;-78
2023/07/17 10:22:38;;;;;;;3.33;2.00;;;22.00;97.60;;;;;;5007055;28;20101;-78
2023/07/17 10:25:09;;;;;;;3.78;1.85;;;22.00;97.20;;;;;;5000340;28;20045;-77
2023/07/17 10:27:57;;;;;;;4.65;1.80;;;22.20;98.10;;;;;;5003230;28;20023;-77
2023/07/17 10:30:48;;;;;;;4.95;2.28;;;22.40;97.50;;;;;;5002103;28;20046;-79
2023/07/17 10:33:15;;;;;;;5.15;2.35;;;22.50;97.10;;;;;;4995987;28;20033;-77
2023/07/17 10:35:52;;;;;;;3.83;1.95;;;22.50;97.00;;;;;;4987177;28;20635;-78
2023/07/17 10:38:27;;;;;;;4.15;1.98;;;22.60;97.60;;;;;;5004527;28;20056;-78
2023/07/17 10:41:03;;;;;;;3.05;1.92;;;22.90;97.10;;;;;;4983244;28;20015;-77
2023/07/17 10:43:28;;;;;;;3.47;2.38;;;22.90;96.80;;;;;;4998525;28;20124;-78
2023/07/17 10:45:54;;;;;;;5.43;2.55;;;23.00;96.80;;;;;;5000030;28;20074;-78
2023/07/17 10:48:24;;;;;;;3.10;1.80;;;22.90;96.20;;;;;;5007888;28;20033;-78
2023/07/17 10:50:52;;;;;;;5.03;2.63;;;22.80;97.20;;;;;;4982528;28;20023;-76
2023/07/17 10:53:18;;;;;;;6.05;2.45;;;22.90;96.20;;;;;;5002524;28;20113;-77
2023/07/17 10:55:46;;;;;;;5.57;2.70;;;22.90;96.00;;;;;;5007724;28;20108;-77
2023/07/17 10:58:12;;;;;;;3.45;2.58;;;22.80;96.60;;;;;;4987973;28;20023;-77
2023/07/17 11:00:44;;;;;;;3.70;2.28;;;22.70;96.20;;;;;;5010141;28;20084;-76
2023/07/17 11:03:12;;;;;;;5.88;2.63;;;22.50;96.70;;;;;;4997797;28;20102;-78
2023/07/17 11:05:39;;;;;;;4.90;2.53;;;22.50;96.60;;;;;;4994700;28;20026;-77
2023/07/17 11:08:06;;;;;;;4.60;2.08;;;22.40;97.00;;;;;;4979515;28;20030;-77
2023/07/17 11:10:33;;;;;;;4.15;2.63;;;22.30;97.30;;;;;;5005785;28;20665;-77
2023/07/17 11:13:04;;;;;;;4.93;2.13;;;22.40;97.50;;;;;;5003922;28;20026;-77
2023/07/17 11:15:35;;;;;;;3.75;2.03;;;22.40;97.20;;;;;;5001370;28;20069;-77
2023/07/17 11:18:02;;;;;;;5.43;2.70;;;22.60;97.40;;;;;;5008255;28;20053;-77
2023/07/17 11:20:29;;;;;;;2.72;2.22;;;22.70;97.00;;;;;;5001110;28;20105;-77
2023/07/17 11:22:56;;;;;;;3.90;2.70;;;22.90;97.00;;;;;;5008711;28;20041;-77
2023/07/17 11:25:29;;;;;;;6.57;2.28;;;23.00;95.90;;;;;;4985354;28;20030;-77
2023/07/17 11:27:56;;;;;;;5.47;2.42;;;23.20;96.70;;;;;;4994822;28;20083;-77
2023/07/17 11:30:27;;;;;;;3.22;2.72;;;23.10;95.80;;;;;;4988241;28;20086;-77
2023/07/17 11:32:58;;;;;;;5.65;2.05;;;23.00;96.40;;;;;;4992247;28;20026;-77
2023/07/17 11:35:37;;;;;;;2.92;2.00;;;23.00;96.60;;;;;;5005484;28;20027;-77
2023/07/17 11:38:08;;;;;;;3.85;2.20;;;22.80;96.10;;;;;;4997934;28;20053;-76
2023/07/17 11:40:55;;;;;;;3.30;2.70;;;22.60;96.80;;;;;;4990945;28;20022;-77
2023/07/17 11:43:37;;;;;;;2.58;1.70;;;22.30;95.80;;;;;;5003349;28;20078;-77
2023/07/17 11:46:07;;;;;;;4.72;1.63;;;21.80;96.40;;;;;;4995945;28;20053;-78
2023/07/17 11:48:42;;;;;;;0.93;0.73;;;21.20;97.70;;;;;;5012360;28;20026;-78
2023/07/17 11:51:08;;;;;;;1.95;0.93;;;21.00;98.40;;;;;;5003747;28;20041;-77
2023/07/17 11:53:36;;;;;;;1.92;0.57;;;20.60;98.80;;;;;;4999778;28;20034;-78
2023/07/17 11:56:02;;;;;;;3.05;0.80;;;20.40;99.50;;;;;;4986583;28;20033;-77
2023/07/17 11:58:30;;;;;;;1.80;0.80;;;20.40;99.90;;;;;;5004674;28;20022;-77
2023/07/17 12:00:57;;;;;;;2.25;0.77;;;20.40;99.90;;;;;;5007031;28;20066;-77
2023/07/17 12:03:23;;;;;;;1.77;1.00;;;20.40;99.90;;;;;;5007762;28;20188;-77
2023/07/17 12:05:49;;;;;;;2.35;1.13;;;20.40;99.90;;;;;;4979609;28;20022;-78
2023/07/17 12:08:15;;;;;;;6.25;1.27;;;20.50;99.90;;;;;;4984610;28;20111;-77
2023/07/17 12:10:41;;;;;;;2.70;1.60;;;20.40;99.90;;;;;;5007693;28;20039;-77
2023/07/17 12:13:08;;;;;;;3.35;1.70;;;20.20;99.90;;;;;;5004809;28;20080;-77
2023/07/17 12:15:35;;;;;;;2.10;1.00;;;20.20;99.90;;;;;;5005660;28;20394;-76
2023/07/17 12:18:01;;;;;;;3.22;1.25;;;20.30;99.90;;;;;;5007226;28;20053;-78
2023/07/17 12:20:27;;;;;;;6.03;1.25;;;20.30;99.90;;;;;;4980473;28;20030;-77
2023/07/17 12:22:55;;;;;;;1.52;0.82;;;20.10;99.90;;;;;;5003958;28;20026;-77
2023/07/17 12:25:21;;;;;;;2.47;1.00;;;19.90;99.90;;;;;;4981573;28;20018;-77
2023/07/17 12:27:47;;;;;;;1.20;1.00;;;19.60;99.90;;;;;;5007452;28;20079;-78
2023/07/17 12:30:14;;;;;;;4.35;1.40;;;19.40;99.90;;;;;;5000583;28;20015;-77
2023/07/17 12:32:41;;;;;;;5.03;1.30;;;19.20;99.90;;;;;;4990978;28;20049;-78
2023/07/17 12:35:07;;;;;;;1.30;1.20;;;19.10;99.90;;;;;;5005621;28;20022;-78
2023/07/17 12:37:33;;;;;;;2.45;0.85;;;18.90;99.90;;;;;;5007974;28;20113;-77
2023/07/17 12:39:59;;;;;;;2.33;1.00;;;18.80;99.90;;;;;;4989747;28;20481;-76
2023/07/17 12:42:25;;;;;;;2.00;0.90;;;18.70;99.90;;;;;;4986670;28;20033;-76
2023/07/17 12:44:51;;;;;;;2.33;0.98;;;18.60;99.90;;;;;;5002067;28;20098;-76
2023/07/17 12:47:17;;;;;;;0.90;0.80;;;18.60;99.90;;;;;;5004796;28;20113;-77